createdAt,value
2023-02-18T00:00:28.686Z,60.92
2023-02-18T00:02:55.340Z,61.17
2023-02-18T00:05:22.705Z,61.17
2023-02-18T00:07:49.196Z,61.40
2023-02-18T00:10:16.205Z,61.51
2023-02-18T00:12:43.132Z,61.54
2023-02-18T00:15:10.050Z,61.34
2023-02-18T00:17:36.826Z,61.59
2023-02-18T00:20:05.054Z,61.45
2023-02-18T00:22:31.621Z,61.45
2023-02-18T00:24:58.171Z,61.42
2023-02-18T00:27:24.698Z,61.43
2023-02-18T00:29:51.346Z,61.20
2023-02-18T00:32:17.784Z,61.07
2023-02-18T00:34:44.370Z,60.85
2023-02-18T00:37:10.866Z,60.67
2023-02-18T00:39:37.420Z,60.58
2023-02-18T00:42:04.155Z,60.75
2023-02-18T00:44:30.691Z,60.68
2023-02-18T00:46:57.445Z,60.82
2023-02-18T00:49:24.042Z,60.71
2023-02-18T00:51:50.502Z,60.76
2023-02-18T00:54:17.032Z,60.76
2023-02-18T00:56:43.667Z,60.79
2023-02-18T00:59:10.204Z,60.84
2023-02-18T01:01:37.351Z,60.88
2023-02-18T01:04:04.051Z,60.97
2023-02-18T01:06:30.693Z,61.02
2023-02-18T01:08:57.347Z,61.00
2023-02-18T01:11:23.874Z,60.97
2023-02-18T01:13:50.374Z,60.81
2023-02-18T01:16:17.198Z,60.70
2023-02-18T01:18:44.041Z,60.69
2023-02-18T01:21:11.043Z,60.42
2023-02-18T01:23:38.950Z,60.49
2023-02-18T01:26:06.029Z,60.45
2023-02-18T01:28:33.063Z,60.27
2023-02-18T01:31:05.607Z,60.32
2023-02-18T01:33:32.184Z,60.36
2023-02-18T01:35:58.825Z,60.22
2023-02-18T01:38:25.320Z,60.39
2023-02-18T01:40:52.724Z,60.39
2023-02-18T01:43:21.210Z,60.21
2023-02-18T01:45:57.462Z,60.18
2023-02-18T01:48:37.129Z,60.25
2023-02-18T01:51:19.925Z,60.00
2023-02-18T01:54:05.017Z,60.00
2023-02-18T01:56:37.300Z,60.00
2023-02-18T01:59:09.823Z,59.90
2023-02-18T02:01:36.818Z,59.77
2023-02-18T02:04:03.660Z,59.73
2023-02-18T02:06:30.230Z,59.31
2023-02-18T02:09:01.778Z,59.29
2023-02-18T02:11:51.491Z,58.74
2023-02-18T02:14:27.042Z,58.43
2023-02-18T02:17:02.633Z,58.01
2023-02-18T02:20:20.217Z,57.70
2023-02-18T02:23:19.963Z,56.87
2023-02-18T02:26:07.726Z,56.51
2023-02-18T02:28:47.835Z,56.13
2023-02-18T02:31:48.522Z,55.84
2023-02-18T02:34:17.895Z,55.92
2023-02-18T02:37:02.800Z,55.50
2023-02-18T02:39:43.525Z,55.36
2023-02-18T02:42:25.755Z,55.24
2023-02-18T02:45:01.290Z,55.29
2023-02-18T02:47:45.556Z,54.96
2023-02-18T02:50:26.490Z,54.75
2023-02-18T02:52:59.888Z,54.81
2023-02-18T02:55:26.362Z,54.76
2023-02-18T02:57:54.908Z,54.68
2023-02-18T03:00:45.020Z,54.79
2023-02-18T03:03:32.371Z,54.68
2023-02-18T03:06:28.944Z,54.69
2023-02-18T03:09:01.311Z,54.60
2023-02-18T03:11:35.204Z,54.66
2023-02-18T03:14:16.116Z,54.71
2023-02-18T03:16:57.807Z,54.59
2023-02-18T03:19:29.615Z,54.67
2023-02-18T03:21:58.563Z,54.50
2023-02-18T03:24:35.335Z,54.59
2023-02-18T03:27:09.902Z,54.72
2023-02-18T03:29:36.892Z,54.64
2023-02-18T03:32:07.168Z,54.48
2023-02-18T03:34:40.523Z,54.58
2023-02-18T03:37:09.430Z,54.48
2023-02-18T03:39:37.901Z,54.65
2023-02-18T03:42:04.621Z,54.71
2023-02-18T03:44:31.612Z,54.65
2023-02-18T03:46:58.245Z,54.83
2023-02-18T03:49:24.680Z,54.70
2023-02-18T03:51:51.262Z,54.90
2023-02-18T03:54:17.854Z,54.91
2023-02-18T03:56:44.520Z,55.12
2023-02-18T03:59:12.741Z,55.09
2023-02-18T04:01:39.952Z,55.07
2023-02-18T04:04:06.699Z,55.18
2023-02-18T04:06:33.233Z,55.43
2023-02-18T04:09:00.279Z,55.49
2023-02-18T04:11:26.738Z,55.48
2023-02-18T04:13:53.266Z,55.64
2023-02-18T04:16:19.796Z,55.60
2023-02-18T04:18:46.336Z,55.79
2023-02-18T04:21:12.807Z,55.72
2023-02-18T04:23:39.392Z,55.92
2023-02-18T04:26:05.965Z,55.96
2023-02-18T04:28:32.442Z,56.12
2023-02-18T04:30:58.912Z,56.04
2023-02-18T04:33:25.436Z,56.03
2023-02-18T04:35:51.961Z,56.19
2023-02-18T04:38:18.489Z,56.24
2023-02-18T04:40:45.082Z,56.57
2023-02-18T04:43:11.580Z,56.48
2023-02-18T04:45:38.114Z,56.43
2023-02-18T04:48:05.149Z,56.63
2023-02-18T04:50:31.910Z,56.77
2023-02-18T04:52:58.453Z,57.03
2023-02-18T04:55:24.969Z,56.98
2023-02-18T04:57:51.465Z,57.09
2023-02-18T05:00:20.402Z,57.05
2023-02-18T05:02:47.240Z,57.16
2023-02-18T05:05:15.024Z,56.86
2023-02-18T05:07:41.701Z,56.92
2023-02-18T05:10:10.085Z,56.87
2023-02-18T05:12:36.751Z,56.98
2023-02-18T05:15:04.060Z,57.63
2023-02-18T05:17:30.607Z,58.05
2023-02-18T05:19:57.392Z,58.89
2023-02-18T05:22:24.000Z,59.24
2023-02-18T05:24:50.504Z,59.36
2023-02-18T05:27:17.070Z,59.66
2023-02-18T05:29:43.571Z,59.68
2023-02-18T05:32:10.202Z,59.84
2023-02-18T05:34:36.709Z,59.80
2023-02-18T05:37:03.249Z,59.93
2023-02-18T05:39:29.724Z,59.97
2023-02-18T05:41:56.337Z,60.12
2023-02-18T05:44:23.098Z,60.21
2023-02-18T05:46:49.719Z,60.30
2023-02-18T05:49:16.207Z,60.52
2023-02-18T05:51:42.747Z,60.77
2023-02-18T05:54:09.214Z,60.54
2023-02-18T05:56:35.821Z,60.69
2023-02-18T05:59:02.326Z,60.55
2023-02-18T06:01:28.839Z,60.50
2023-02-18T06:03:55.406Z,60.55
2023-02-18T06:06:22.060Z,60.42
2023-02-18T06:08:48.590Z,60.33
2023-02-18T06:11:15.108Z,60.36
2023-02-18T06:13:41.664Z,60.33
2023-02-18T06:16:08.531Z,60.28
2023-02-18T06:18:35.249Z,60.01
2023-02-18T06:21:01.748Z,59.97
2023-02-18T06:23:28.266Z,59.89
2023-02-18T06:25:54.907Z,59.82
2023-02-18T06:28:21.413Z,59.78
2023-02-18T06:30:48.135Z,59.79
2023-02-18T06:33:15.050Z,59.68
2023-02-18T06:35:42.110Z,59.40
2023-02-18T06:38:08.674Z,59.41
2023-02-18T06:40:35.168Z,59.55
2023-02-18T06:43:01.651Z,59.58
2023-02-18T06:45:28.140Z,59.77
2023-02-18T06:47:54.581Z,59.82
2023-02-18T06:50:21.148Z,60.07
2023-02-18T06:52:47.627Z,60.08
2023-02-18T06:55:14.221Z,59.97
2023-02-18T06:57:40.727Z,59.94
2023-02-18T07:00:08.324Z,60.02
2023-02-18T07:02:34.815Z,60.23
2023-02-18T07:05:01.422Z,60.34
2023-02-18T07:07:27.958Z,60.69
2023-02-18T07:09:54.457Z,60.86
2023-02-18T07:12:20.983Z,61.29
2023-02-18T07:14:47.486Z,61.38
2023-02-18T07:17:14.246Z,61.58
2023-02-18T07:19:40.976Z,62.24
2023-02-18T07:22:07.496Z,62.45
2023-02-18T07:24:33.994Z,62.54
2023-02-18T07:27:00.473Z,62.59
2023-02-18T07:29:27.027Z,62.65
2023-02-18T07:31:53.678Z,62.51
2023-02-18T07:34:20.744Z,62.52
2023-02-18T07:36:47.243Z,62.36
2023-02-18T07:39:13.913Z,62.00
2023-02-18T07:41:40.510Z,61.94
2023-02-18T07:44:07.065Z,61.68
2023-02-18T07:46:33.577Z,61.53
2023-02-18T07:49:00.122Z,61.33
2023-02-18T07:51:26.595Z,60.79
2023-02-18T07:53:53.099Z,60.54
2023-02-18T07:56:19.563Z,60.38
2023-02-18T07:58:46.058Z,59.98
2023-02-18T08:01:15.155Z,59.82
2023-02-18T08:03:41.691Z,59.41
2023-02-18T08:06:09.094Z,59.31
2023-02-18T08:08:37.224Z,59.16
2023-02-18T08:11:13.322Z,58.86
2023-02-18T08:13:46.993Z,57.84
2023-02-18T08:16:14.590Z,58.04
2023-02-18T08:18:41.212Z,57.33
2023-02-18T08:21:07.734Z,56.96
2023-02-18T08:23:34.221Z,56.27
2023-02-18T08:26:00.817Z,56.33
2023-02-18T08:28:27.432Z,56.26
2023-02-18T08:30:54.508Z,55.82
2023-02-18T08:33:21.984Z,55.90
2023-02-18T08:35:49.642Z,55.58
2023-02-18T08:38:16.501Z,55.27
2023-02-18T08:40:43.135Z,55.23
2023-02-18T08:43:10.418Z,54.71
2023-02-18T08:45:38.274Z,54.32
2023-02-18T08:48:18.659Z,54.42
2023-02-18T08:50:47.577Z,54.29
2023-02-18T08:53:14.187Z,54.49
2023-02-18T08:55:41.594Z,54.60
2023-02-18T08:58:08.110Z,53.98
2023-02-18T09:00:35.335Z,52.07
2023-02-18T09:03:01.876Z,51.31
2023-02-18T09:05:28.614Z,50.54
2023-02-18T09:07:55.215Z,50.12
2023-02-18T09:10:22.308Z,50.18
2023-02-18T09:12:48.836Z,49.36
2023-02-18T09:15:16.273Z,49.97
2023-02-18T09:17:42.874Z,50.74
2023-02-18T09:20:09.652Z,51.04
2023-02-18T09:22:36.244Z,51.60
2023-02-18T09:25:03.556Z,52.40
2023-02-18T09:27:30.050Z,52.96
2023-02-18T09:29:56.580Z,53.18
2023-02-18T09:32:34.309Z,53.70
2023-02-18T09:35:02.663Z,53.97
2023-02-18T09:37:29.225Z,54.05
2023-02-18T09:39:55.762Z,54.08
2023-02-18T09:42:28.087Z,53.57
2023-02-18T09:44:58.054Z,52.79
2023-02-18T09:47:39.043Z,51.20
2023-02-18T09:50:11.473Z,48.95
2023-02-18T09:52:38.641Z,47.59
2023-02-18T09:55:19.572Z,47.05
2023-02-18T09:57:56.115Z,44.97
2023-02-18T10:00:29.089Z,42.71
2023-02-18T10:02:58.680Z,39.90
2023-02-18T10:05:28.265Z,37.69
2023-02-18T10:08:01.964Z,36.19
2023-02-18T10:10:42.781Z,35.96
2023-02-18T10:13:15.125Z,35.93
2023-02-18T10:15:42.395Z,36.61
2023-02-18T10:18:21.701Z,37.68
2023-02-18T10:20:50.765Z,37.14
2023-02-18T10:23:20.075Z,34.01
2023-02-18T10:25:48.919Z,31.45
2023-02-18T10:28:15.377Z,32.44
2023-02-18T10:30:47.768Z,33.73
2023-02-18T10:33:32.697Z,35.23
2023-02-18T10:36:37.416Z,37.24
2023-02-18T10:39:09.669Z,38.72
2023-02-18T10:41:47.973Z,39.70
2023-02-18T10:44:20.305Z,40.30
2023-02-18T10:47:14.177Z,39.05
2023-02-18T10:49:57.330Z,35.40
2023-02-18T10:52:27.920Z,30.18
2023-02-18T10:55:02.143Z,28.15
2023-02-18T10:57:28.597Z,27.14
2023-02-18T11:00:14.849Z,28.65
2023-02-18T11:02:42.637Z,30.60
2023-02-18T11:05:27.521Z,32.04
2023-02-18T11:07:57.888Z,33.22
2023-02-18T11:10:27.272Z,34.75
2023-02-18T11:13:07.136Z,35.98
2023-02-18T11:15:34.311Z,37.42
2023-02-18T11:18:34.647Z,38.85
2023-02-18T11:21:21.361Z,40.89
2023-02-18T11:23:51.655Z,42.86
2023-02-18T11:26:32.095Z,44.50
2023-02-18T11:29:03.554Z,45.78
2023-02-18T11:31:49.901Z,46.60
2023-02-18T11:34:43.278Z,47.76
2023-02-18T11:37:16.954Z,48.57
2023-02-18T11:39:45.639Z,49.28
2023-02-18T11:42:15.159Z,48.17
2023-02-18T11:44:48.050Z,44.86
2023-02-18T11:47:14.475Z,43.98
2023-02-18T11:49:43.414Z,43.70
2023-02-18T11:52:20.855Z,43.70
2023-02-18T11:55:04.710Z,44.30
2023-02-18T11:57:33.893Z,44.94
2023-02-18T12:00:01.080Z,45.55
2023-02-18T12:02:36.068Z,45.70
2023-02-18T12:05:16.441Z,45.20
2023-02-18T12:07:50.244Z,42.61
2023-02-18T12:10:27.097Z,41.16
2023-02-18T12:13:03.273Z,40.22
2023-02-18T12:15:43.172Z,40.50
2023-02-18T12:18:15.595Z,41.18
2023-02-18T12:20:44.974Z,41.96
2023-02-18T12:23:30.332Z,42.56
2023-02-18T12:26:18.472Z,43.48
2023-02-18T12:29:10.501Z,44.53
2023-02-18T12:32:10.148Z,44.86
2023-02-18T12:34:43.995Z,45.14
2023-02-18T12:37:22.583Z,44.84
2023-02-18T12:40:07.759Z,44.80
2023-02-18T12:42:58.593Z,45.13
2023-02-18T12:45:34.424Z,45.55
2023-02-18T12:48:19.993Z,45.51
2023-02-18T12:51:07.982Z,45.24
2023-02-18T12:53:43.905Z,45.46
2023-02-18T12:56:30.650Z,45.58
2023-02-18T12:59:34.740Z,45.60
2023-02-18T13:02:43.145Z,45.68
2023-02-18T13:05:28.003Z,45.08
2023-02-18T13:07:54.416Z,45.43
2023-02-18T13:10:34.481Z,45.49
2023-02-18T13:13:05.217Z,45.37
2023-02-18T13:15:43.101Z,45.53
2023-02-18T13:18:18.526Z,45.35
2023-02-18T13:20:57.861Z,45.33
2023-02-18T13:23:30.598Z,45.18
2023-02-18T13:26:05.529Z,44.95
2023-02-18T13:28:40.842Z,44.71
2023-02-18T13:31:19.532Z,44.62
2023-02-18T13:34:21.378Z,44.21
2023-02-18T13:37:12.698Z,44.32
2023-02-18T13:39:56.874Z,44.49
2023-02-18T13:42:37.894Z,44.49
2023-02-18T13:45:22.857Z,44.75
2023-02-18T13:47:50.064Z,44.98
2023-02-18T13:50:22.565Z,45.11
2023-02-18T13:52:50.601Z,45.38
2023-02-18T13:55:23.980Z,45.50
2023-02-18T13:57:54.706Z,45.71
2023-02-18T14:00:24.979Z,46.04
2023-02-18T14:03:17.709Z,46.17
2023-02-18T14:05:44.258Z,46.48
2023-02-18T14:08:49.732Z,46.51
2023-02-18T14:11:16.174Z,46.69
2023-02-18T14:13:49.011Z,46.79
2023-02-18T14:16:15.711Z,47.19
2023-02-18T14:18:42.169Z,47.32
2023-02-18T14:21:11.614Z,47.21
2023-02-18T14:23:38.075Z,47.19
2023-02-18T14:26:13.218Z,47.38
2023-02-18T14:28:44.202Z,47.71
2023-02-18T14:31:14.246Z,47.83
2023-02-18T14:33:46.780Z,47.81
2023-02-18T14:36:16.005Z,47.88
2023-02-18T14:39:20.321Z,48.03
2023-02-18T14:42:08.616Z,47.94
2023-02-18T14:45:12.377Z,48.06
2023-02-18T14:48:16.213Z,48.12
2023-02-18T14:50:46.119Z,48.16
2023-02-18T14:53:17.522Z,48.13
2023-02-18T14:55:47.517Z,47.89
2023-02-18T14:58:16.772Z,47.83
2023-02-18T15:00:44.094Z,47.83
2023-02-18T15:03:17.077Z,47.73
2023-02-18T15:05:44.700Z,47.95
2023-02-18T15:08:23.230Z,47.77
2023-02-18T15:11:03.041Z,47.98
2023-02-18T15:13:31.610Z,47.76
2023-02-18T15:16:04.171Z,48.02
2023-02-18T15:18:35.672Z,47.98
2023-02-18T15:21:02.717Z,48.14
2023-02-18T15:23:30.161Z,48.15
2023-02-18T15:25:57.797Z,48.24
2023-02-18T15:28:28.030Z,48.47
2023-02-18T15:31:00.328Z,48.79
2023-02-18T15:33:28.143Z,48.92
2023-02-18T15:36:06.312Z,49.30
2023-02-18T15:38:33.576Z,49.35
2023-02-18T15:41:01.152Z,49.60
2023-02-18T15:43:27.676Z,49.98
2023-02-18T15:45:58.540Z,50.22
2023-02-18T15:48:44.870Z,50.38
2023-02-18T15:51:18.030Z,50.78
2023-02-18T15:53:47.881Z,51.10
2023-02-18T15:56:21.529Z,51.32
2023-02-18T15:58:47.991Z,51.83
2023-02-18T16:01:27.756Z,52.46
2023-02-18T16:03:55.546Z,52.68
2023-02-18T16:06:25.482Z,52.81
2023-02-18T16:09:06.401Z,53.19
2023-02-18T16:11:37.486Z,53.63
2023-02-18T16:14:04.655Z,53.79
2023-02-18T16:16:34.118Z,54.21
2023-02-18T16:19:01.170Z,54.26
2023-02-18T16:21:39.907Z,54.58
2023-02-18T16:24:28.065Z,54.80
2023-02-18T16:26:57.833Z,54.83
2023-02-18T16:29:26.969Z,55.07
2023-02-18T16:31:53.636Z,55.44
2023-02-18T16:34:20.182Z,55.53
2023-02-18T16:36:46.693Z,55.76
2023-02-18T16:39:13.405Z,55.82
2023-02-18T16:41:39.881Z,55.99
2023-02-18T16:44:13.202Z,56.08
2023-02-18T16:46:39.650Z,56.24
2023-02-18T16:49:06.161Z,56.31
2023-02-18T16:51:34.913Z,56.54
2023-02-18T16:54:01.410Z,56.63
2023-02-18T16:56:31.923Z,56.78
2023-02-18T16:58:58.427Z,56.97
2023-02-18T17:01:35.966Z,56.96
2023-02-18T17:04:03.482Z,57.05
2023-02-18T17:06:30.207Z,57.14
2023-02-18T17:08:56.718Z,57.33
2023-02-18T17:11:25.885Z,57.47
2023-02-18T17:13:54.958Z,57.61
2023-02-18T17:16:21.845Z,57.75
2023-02-18T17:18:48.444Z,57.84
2023-02-18T17:21:17.558Z,57.86
2023-02-18T17:23:44.827Z,58.07
2023-02-18T17:26:19.584Z,58.09
2023-02-18T17:28:46.094Z,58.33
2023-02-18T17:31:17.198Z,58.23
2023-02-18T17:33:45.314Z,58.54
2023-02-18T17:36:12.985Z,58.86
2023-02-18T17:38:40.206Z,59.00
2023-02-18T17:41:07.602Z,59.06
2023-02-18T17:43:34.261Z,59.34
2023-02-18T17:46:01.069Z,59.31
2023-02-18T17:48:27.634Z,59.51
2023-02-18T17:50:54.156Z,59.83
2023-02-18T17:53:20.680Z,59.78
2023-02-18T17:55:48.416Z,59.99
2023-02-18T17:58:15.891Z,60.09
2023-02-18T18:00:51.709Z,60.17
2023-02-18T18:03:18.516Z,60.50
2023-02-18T18:05:49.080Z,60.67
2023-02-18T18:08:16.292Z,60.65
2023-02-18T18:10:50.397Z,60.88
2023-02-18T18:13:26.109Z,60.89
2023-02-18T18:15:53.083Z,61.02
2023-02-18T18:18:20.368Z,61.14
2023-02-18T18:20:50.768Z,61.21
2023-02-18T18:23:19.292Z,61.09
2023-02-18T18:25:48.938Z,61.14
2023-02-18T18:28:15.803Z,61.14
2023-02-18T18:30:45.532Z,61.09
2023-02-18T18:33:25.128Z,61.06
2023-02-18T18:35:53.782Z,61.04
2023-02-18T18:38:22.019Z,61.09
2023-02-18T18:40:50.324Z,60.98
2023-02-18T18:43:26.203Z,60.92
2023-02-18T18:45:53.962Z,60.97
2023-02-18T18:48:21.558Z,60.84
2023-02-18T18:50:49.218Z,61.01
2023-02-18T18:53:28.212Z,60.84
2023-02-18T18:55:57.914Z,60.84
2023-02-18T18:58:25.335Z,60.74
2023-02-18T19:00:57.495Z,60.80
2023-02-18T19:03:26.554Z,60.95
2023-02-18T19:05:53.195Z,61.03
2023-02-18T19:08:20.477Z,60.94
2023-02-18T19:10:55.633Z,60.93
2023-02-18T19:13:29.193Z,61.06
2023-02-18T19:16:08.060Z,60.90
2023-02-18T19:18:34.977Z,61.00
2023-02-18T19:21:01.541Z,61.02
2023-02-18T19:23:28.233Z,61.14
2023-02-18T19:25:54.819Z,61.14
2023-02-18T19:28:21.668Z,61.29
2023-02-18T19:30:48.429Z,61.46
2023-02-18T19:33:15.333Z,61.56
2023-02-18T19:35:42.634Z,61.56
2023-02-18T19:38:11.176Z,61.58
2023-02-18T19:40:38.449Z,61.61
2023-02-18T19:43:05.638Z,61.66
2023-02-18T19:45:32.609Z,61.73
2023-02-18T19:48:00.473Z,61.85
2023-02-18T19:50:28.676Z,61.95
2023-02-18T19:52:55.954Z,62.21
2023-02-18T19:55:23.065Z,62.04
2023-02-18T19:57:50.559Z,62.21
2023-02-18T20:00:19.308Z,62.24
2023-02-18T20:02:46.172Z,62.21
2023-02-18T20:05:13.636Z,62.22
2023-02-18T20:07:41.341Z,62.28
2023-02-18T20:10:11.188Z,62.11
2023-02-18T20:12:38.011Z,62.24
2023-02-18T20:15:04.941Z,62.19
2023-02-18T20:17:31.702Z,62.22
2023-02-18T20:19:58.228Z,62.28
2023-02-18T20:22:24.729Z,62.12
2023-02-18T20:24:51.206Z,62.22
2023-02-18T20:27:18.161Z,62.15
2023-02-18T20:29:44.644Z,62.10
2023-02-18T20:32:11.215Z,62.21
2023-02-18T20:34:37.763Z,62.15
2023-02-18T20:37:04.255Z,61.97
2023-02-18T20:39:30.781Z,62.06
2023-02-18T20:41:59.307Z,61.89
2023-02-18T20:44:29.407Z,61.72
2023-02-18T20:46:55.872Z,61.72
2023-02-18T20:49:22.786Z,61.70
2023-02-18T20:51:49.394Z,61.62
2023-02-18T20:54:18.330Z,61.42
2023-02-18T20:56:46.834Z,61.25
2023-02-18T20:59:15.375Z,61.22
2023-02-18T21:01:43.076Z,60.94
2023-02-18T21:04:14.505Z,60.83
2023-02-18T21:06:41.536Z,60.79
2023-02-18T21:09:08.469Z,60.77
2023-02-18T21:11:35.167Z,60.79
2023-02-18T21:14:01.680Z,60.72
2023-02-18T21:16:29.568Z,60.77
2023-02-18T21:18:56.235Z,60.71
2023-02-18T21:21:23.064Z,60.68
2023-02-18T21:23:50.369Z,60.74
2023-02-18T21:26:19.845Z,60.78
2023-02-18T21:28:48.441Z,60.81
2023-02-18T21:31:17.956Z,60.59
2023-02-18T21:33:44.788Z,60.54
2023-02-18T21:36:13.839Z,60.63
2023-02-18T21:38:40.693Z,60.52
2023-02-18T21:41:07.343Z,60.22
2023-02-18T21:43:34.000Z,60.28
2023-02-18T21:46:15.546Z,60.45
2023-02-18T21:48:42.340Z,60.27
2023-02-18T21:51:09.081Z,60.23
2023-02-18T21:53:35.691Z,60.28
2023-02-18T21:56:10.373Z,60.49
2023-02-18T21:58:36.825Z,60.37
2023-02-18T22:01:03.457Z,60.46
2023-02-18T22:03:29.965Z,60.62
2023-02-18T22:05:56.428Z,60.65
2023-02-18T22:08:22.930Z,60.73
2023-02-18T22:10:49.402Z,60.67
2023-02-18T22:13:15.892Z,60.69
2023-02-18T22:15:42.348Z,60.69
2023-02-18T22:18:08.889Z,60.57
2023-02-18T22:20:35.375Z,60.46
2023-02-18T22:23:02.036Z,60.29
2023-02-18T22:25:28.528Z,60.14
2023-02-18T22:27:55.078Z,60.12
2023-02-18T22:30:21.622Z,59.88
2023-02-18T22:32:48.102Z,59.51
2023-02-18T22:35:16.658Z,59.22
2023-02-18T22:37:43.397Z,58.68
2023-02-18T22:40:10.322Z,58.59
2023-02-18T22:42:36.803Z,58.12
2023-02-18T22:45:03.607Z,57.66
2023-02-18T22:47:30.103Z,57.79
2023-02-18T22:49:56.627Z,57.57
2023-02-18T22:52:23.088Z,57.40
2023-02-18T22:54:49.562Z,57.17
2023-02-18T22:57:16.014Z,56.61
2023-02-18T22:59:42.557Z,56.26
2023-02-18T23:02:09.118Z,55.93
2023-02-18T23:04:35.614Z,55.51
2023-02-18T23:07:02.161Z,55.23
2023-02-18T23:09:28.711Z,54.92
2023-02-18T23:11:57.338Z,54.76
2023-02-18T23:14:25.865Z,54.94
2023-02-18T23:16:58.041Z,54.93
2023-02-18T23:19:26.421Z,54.81
2023-02-18T23:21:53.141Z,54.84
2023-02-18T23:24:20.621Z,54.86
2023-02-18T23:26:47.616Z,55.00
2023-02-18T23:29:15.368Z,55.01
2023-02-18T23:31:41.972Z,55.07
2023-02-18T23:34:16.086Z,55.35
2023-02-18T23:36:43.198Z,55.42
2023-02-18T23:39:11.642Z,55.19
2023-02-18T23:41:38.145Z,55.10
2023-02-18T23:44:07.185Z,55.05
2023-02-18T23:46:34.477Z,55.07
2023-02-18T23:49:01.521Z,55.09
2023-02-18T23:51:27.999Z,55.12
2023-02-18T23:53:54.452Z,55.09
2023-02-18T23:56:26.609Z,55.17
2023-02-18T23:59:00.280Z,55.11
